sensor_id;sensor_type;location;lat;lon;timestamp;P1;durP1;ratioP1;P2;durP2;ratioP2
13079;SDS011;6606;49.154;9.280;2023-03-08T00:01:08;6.53;;;5.23;;
13079;SDS011;6606;49.154;9.280;2023-03-08T00:03:51;9.30;;;5.77;;
13079;SDS011;6606;49.154;9.280;2023-03-08T00:06:35;7.77;;;5.63;;
13079;SDS011;6606;49.154;9.280;2023-03-08T00:09:18;7.83;;;6.10;;
13079;SDS011;6606;49.154;9.280;2023-03-08T00:12:00;8.77;;;6.17;;
13079;SDS011;6606;49.154;9.280;2023-03-08T00:14:42;9.57;;;6.40;;
13079;SDS011;6606;49.154;9.280;2023-03-08T00:17:24;8.63;;;6.50;;
13079;SDS011;6606;49.154;9.280;2023-03-08T00:20:06;9.27;;;6.37;;
13079;SDS011;6606;49.154;9.280;2023-03-08T00:22:51;10.83;;;6.30;;
13079;SDS011;6606;49.154;9.280;2023-03-08T00:25:33;7.13;;;5.63;;
13079;SDS011;6606;49.154;9.280;2023-03-08T00:28:15;8.93;;;6.37;;
13079;SDS011;6606;49.154;9.280;2023-03-08T00:30:57;9.70;;;6.90;;
13079;SDS011;6606;49.154;9.280;2023-03-08T00:33:40;11.07;;;6.63;;
13079;SDS011;6606;49.154;9.280;2023-03-08T00:36:22;9.33;;;6.60;;
13079;SDS011;6606;49.154;9.280;2023-03-08T00:39:05;8.77;;;6.50;;
13079;SDS011;6606;49.154;9.280;2023-03-08T00:41:47;8.40;;;6.60;;
13079;SDS011;6606;49.154;9.280;2023-03-08T00:44:29;10.20;;;6.27;;
13079;SDS011;6606;49.154;9.280;2023-03-08T00:47:10;10.67;;;6.70;;
13079;SDS011;6606;49.154;9.280;2023-03-08T00:49:52;8.63;;;6.33;;
13079;SDS011;6606;49.154;9.280;2023-03-08T00:52:34;8.80;;;6.60;;
13079;SDS011;6606;49.154;9.280;2023-03-08T00:55:17;11.87;;;6.73;;
13079;SDS011;6606;49.154;9.280;2023-03-08T00:58:00;11.03;;;6.47;;
13079;SDS011;6606;49.154;9.280;2023-03-08T01:00:43;10.30;;;6.50;;
13079;SDS011;6606;49.154;9.280;2023-03-08T01:03:25;9.33;;;6.33;;
13079;SDS011;6606;49.154;9.280;2023-03-08T01:06:10;9.93;;;6.60;;
13079;SDS011;6606;49.154;9.280;2023-03-08T01:08:54;9.80;;;6.47;;
13079;SDS011;6606;49.154;9.280;2023-03-08T01:11:38;9.63;;;6.07;;
13079;SDS011;6606;49.154;9.280;2023-03-08T01:14:20;10.13;;;7.33;;
13079;SDS011;6606;49.154;9.280;2023-03-08T01:17:03;9.10;;;6.73;;
13079;SDS011;6606;49.154;9.280;2023-03-08T01:19:45;10.77;;;6.67;;
13079;SDS011;6606;49.154;9.280;2023-03-08T01:22:27;9.07;;;6.30;;
13079;SDS011;6606;49.154;9.280;2023-03-08T01:25:09;10.50;;;6.90;;
13079;SDS011;6606;49.154;9.280;2023-03-08T01:27:52;12.27;;;7.23;;
13079;SDS011;6606;49.154;9.280;2023-03-08T01:30:34;10.13;;;7.03;;
13079;SDS011;6606;49.154;9.280;2023-03-08T01:33:17;12.00;;;7.27;;
13079;SDS011;6606;49.154;9.280;2023-03-08T01:36:03;8.83;;;6.30;;
13079;SDS011;6606;49.154;9.280;2023-03-08T01:38:45;9.43;;;6.57;;
13079;SDS011;6606;49.154;9.280;2023-03-08T01:41:28;8.47;;;5.87;;
13079;SDS011;6606;49.154;9.280;2023-03-08T01:44:14;8.70;;;6.73;;
13079;SDS011;6606;49.154;9.280;2023-03-08T01:46:58;10.47;;;6.30;;
13079;SDS011;6606;49.154;9.280;2023-03-08T01:49:51;9.80;;;7.17;;
13079;SDS011;6606;49.154;9.280;2023-03-08T01:52:34;8.90;;;6.13;;
13079;SDS011;6606;49.154;9.280;2023-03-08T01:55:19;9.63;;;6.27;;
13079;SDS011;6606;49.154;9.280;2023-03-08T01:58:02;10.97;;;6.57;;
13079;SDS011;6606;49.154;9.280;2023-03-08T02:00:45;11.30;;;6.53;;
13079;SDS011;6606;49.154;9.280;2023-03-08T02:03:27;9.10;;;6.70;;
13079;SDS011;6606;49.154;9.280;2023-03-08T02:06:09;9.27;;;6.10;;
13079;SDS011;6606;49.154;9.280;2023-03-08T02:08:51;8.57;;;5.60;;
13079;SDS011;6606;49.154;9.280;2023-03-08T02:11:33;9.17;;;6.53;;
13079;SDS011;6606;49.154;9.280;2023-03-08T02:14:19;10.40;;;6.53;;
13079;SDS011;6606;49.154;9.280;2023-03-08T02:17:05;9.53;;;6.37;;
13079;SDS011;6606;49.154;9.280;2023-03-08T02:19:47;11.07;;;6.10;;
13079;SDS011;6606;49.154;9.280;2023-03-08T02:22:37;10.07;;;5.97;;
13079;SDS011;6606;49.154;9.280;2023-03-08T02:25:20;8.83;;;6.30;;
13079;SDS011;6606;49.154;9.280;2023-03-08T02:28:03;8.17;;;6.00;;
13079;SDS011;6606;49.154;9.280;2023-03-08T02:30:46;12.07;;;7.40;;
13079;SDS011;6606;49.154;9.280;2023-03-08T02:33:28;10.50;;;6.57;;
13079;SDS011;6606;49.154;9.280;2023-03-08T02:36:11;8.67;;;6.27;;
13079;SDS011;6606;49.154;9.280;2023-03-08T02:38:54;10.57;;;7.17;;
13079;SDS011;6606;49.154;9.280;2023-03-08T02:41:36;9.13;;;6.53;;
13079;SDS011;6606;49.154;9.280;2023-03-08T02:44:19;9.10;;;6.57;;
13079;SDS011;6606;49.154;9.280;2023-03-08T02:47:01;10.93;;;7.20;;
13079;SDS011;6606;49.154;9.280;2023-03-08T02:49:43;9.47;;;6.77;;
13079;SDS011;6606;49.154;9.280;2023-03-08T02:52:25;12.90;;;7.30;;
13079;SDS011;6606;49.154;9.280;2023-03-08T02:55:08;12.43;;;7.23;;
13079;SDS011;6606;49.154;9.280;2023-03-08T02:57:50;11.17;;;7.37;;
13079;SDS011;6606;49.154;9.280;2023-03-08T03:00:33;11.17;;;7.37;;
13079;SDS011;6606;49.154;9.280;2023-03-08T03:03:18;10.70;;;7.63;;
13079;SDS011;6606;49.154;9.280;2023-03-08T03:06:03;11.70;;;7.87;;
13079;SDS011;6606;49.154;9.280;2023-03-08T03:08:47;10.33;;;7.43;;
13079;SDS011;6606;49.154;9.280;2023-03-08T03:11:32;11.97;;;7.77;;
13079;SDS011;6606;49.154;9.280;2023-03-08T03:14:15;12.07;;;7.90;;
13079;SDS011;6606;49.154;9.280;2023-03-08T03:16:58;14.57;;;7.50;;
13079;SDS011;6606;49.154;9.280;2023-03-08T03:19:40;13.00;;;8.03;;
13079;SDS011;6606;49.154;9.280;2023-03-08T03:22:22;12.63;;;8.53;;
13079;SDS011;6606;49.154;9.280;2023-03-08T03:25:04;14.27;;;8.80;;
13079;SDS011;6606;49.154;9.280;2023-03-08T03:27:48;13.97;;;8.57;;
13079;SDS011;6606;49.154;9.280;2023-03-08T03:30:31;13.30;;;8.27;;
13079;SDS011;6606;49.154;9.280;2023-03-08T03:33:14;14.13;;;8.87;;
13079;SDS011;6606;49.154;9.280;2023-03-08T03:35:58;12.97;;;9.43;;
13079;SDS011;6606;49.154;9.280;2023-03-08T03:38:40;14.40;;;8.83;;
13079;SDS011;6606;49.154;9.280;2023-03-08T03:41:23;13.17;;;8.87;;
13079;SDS011;6606;49.154;9.280;2023-03-08T03:44:16;12.93;;;8.80;;
13079;SDS011;6606;49.154;9.280;2023-03-08T03:47:02;13.23;;;8.80;;
13079;SDS011;6606;49.154;9.280;2023-03-08T03:49:44;13.27;;;9.30;;
13079;SDS011;6606;49.154;9.280;2023-03-08T03:52:27;14.00;;;9.53;;
13079;SDS011;6606;49.154;9.280;2023-03-08T03:55:14;14.67;;;9.27;;
13079;SDS011;6606;49.154;9.280;2023-03-08T03:57:58;13.40;;;8.90;;
13079;SDS011;6606;49.154;9.280;2023-03-08T04:00:41;15.70;;;9.77;;
13079;SDS011;6606;49.154;9.280;2023-03-08T04:03:39;12.47;;;8.37;;
13079;SDS011;6606;49.154;9.280;2023-03-08T04:06:23;13.87;;;9.07;;
13079;SDS011;6606;49.154;9.280;2023-03-08T04:09:06;14.40;;;9.50;;
13079;SDS011;6606;49.154;9.280;2023-03-08T04:11:53;13.37;;;9.10;;
13079;SDS011;6606;49.154;9.280;2023-03-08T04:14:36;13.47;;;8.87;;
13079;SDS011;6606;49.154;9.280;2023-03-08T04:17:21;15.17;;;9.33;;
13079;SDS011;6606;49.154;9.280;2023-03-08T04:20:06;12.63;;;8.80;;
13079;SDS011;6606;49.154;9.280;2023-03-08T04:22:54;13.20;;;8.47;;
13079;SDS011;6606;49.154;9.280;2023-03-08T04:25:42;13.17;;;8.90;;
13079;SDS011;6606;49.154;9.280;2023-03-08T04:28:27;13.40;;;9.17;;
13079;SDS011;6606;49.154;9.280;2023-03-08T04:31:27;12.37;;;8.33;;
13079;SDS011;6606;49.154;9.280;2023-03-08T04:34:25;11.87;;;8.57;;
13079;SDS011;6606;49.154;9.280;2023-03-08T04:37:07;13.13;;;8.47;;
13079;SDS011;6606;49.154;9.280;2023-03-08T04:39:51;12.73;;;8.37;;
13079;SDS011;6606;49.154;9.280;2023-03-08T04:42:33;11.93;;;7.77;;
13079;SDS011;6606;49.154;9.280;2023-03-08T04:45:15;12.63;;;8.07;;
13079;SDS011;6606;49.154;9.280;2023-03-08T04:47:58;12.07;;;8.23;;
13079;SDS011;6606;49.154;9.280;2023-03-08T04:50:41;12.80;;;7.80;;
13079;SDS011;6606;49.154;9.280;2023-03-08T04:53:24;14.30;;;9.23;;
13079;SDS011;6606;49.154;9.280;2023-03-08T04:56:08;13.00;;;8.63;;
13079;SDS011;6606;49.154;9.280;2023-03-08T04:58:50;13.00;;;8.17;;
13079;SDS011;6606;49.154;9.280;2023-03-08T05:01:35;13.47;;;8.80;;
13079;SDS011;6606;49.154;9.280;2023-03-08T05:04:16;13.57;;;8.40;;
13079;SDS011;6606;49.154;9.280;2023-03-08T05:06:59;13.90;;;8.33;;
13079;SDS011;6606;49.154;9.280;2023-03-08T05:09:45;13.50;;;8.50;;
13079;SDS011;6606;49.154;9.280;2023-03-08T05:12:27;12.77;;;8.93;;
13079;SDS011;6606;49.154;9.280;2023-03-08T05:15:12;13.37;;;8.50;;
13079;SDS011;6606;49.154;9.280;2023-03-08T05:17:54;12.93;;;8.00;;
13079;SDS011;6606;49.154;9.280;2023-03-08T05:20:36;12.03;;;7.93;;
13079;SDS011;6606;49.154;9.280;2023-03-08T05:23:19;11.10;;;8.13;;
13079;SDS011;6606;49.154;9.280;2023-03-08T05:26:01;13.10;;;8.57;;
13079;SDS011;6606;49.154;9.280;2023-03-08T05:28:44;12.70;;;8.50;;
13079;SDS011;6606;49.154;9.280;2023-03-08T05:31:27;10.50;;;7.97;;
13079;SDS011;6606;49.154;9.280;2023-03-08T05:34:11;12.47;;;8.17;;
13079;SDS011;6606;49.154;9.280;2023-03-08T05:36:56;16.33;;;8.50;;
13079;SDS011;6606;49.154;9.280;2023-03-08T05:39:40;13.03;;;8.50;;
13079;SDS011;6606;49.154;9.280;2023-03-08T05:42:30;14.00;;;8.47;;
13079;SDS011;6606;49.154;9.280;2023-03-08T05:45:12;11.17;;;8.53;;
13079;SDS011;6606;49.154;9.280;2023-03-08T05:47:54;15.90;;;8.23;;
13079;SDS011;6606;49.154;9.280;2023-03-08T05:50:37;13.50;;;8.37;;
13079;SDS011;6606;49.154;9.280;2023-03-08T05:53:19;12.03;;;8.03;;
13079;SDS011;6606;49.154;9.280;2023-03-08T05:56:09;12.17;;;8.37;;
13079;SDS011;6606;49.154;9.280;2023-03-08T05:58:58;11.80;;;7.77;;
13079;SDS011;6606;49.154;9.280;2023-03-08T06:01:42;11.50;;;8.43;;
13079;SDS011;6606;49.154;9.280;2023-03-08T06:04:35;10.07;;;7.30;;
13079;SDS011;6606;49.154;9.280;2023-03-08T06:07:17;11.47;;;7.77;;
13079;SDS011;6606;49.154;9.280;2023-03-08T06:10:05;11.10;;;7.90;;
13079;SDS011;6606;49.154;9.280;2023-03-08T06:12:49;11.33;;;8.20;;
13079;SDS011;6606;49.154;9.280;2023-03-08T06:15:33;12.33;;;8.80;;
13079;SDS011;6606;49.154;9.280;2023-03-08T06:18:15;13.57;;;8.10;;
13079;SDS011;6606;49.154;9.280;2023-03-08T06:20:59;11.73;;;7.43;;
13079;SDS011;6606;49.154;9.280;2023-03-08T06:23:44;12.43;;;8.30;;
13079;SDS011;6606;49.154;9.280;2023-03-08T06:26:26;13.60;;;8.07;;
13079;SDS011;6606;49.154;9.280;2023-03-08T06:29:10;10.90;;;7.53;;
13079;SDS011;6606;49.154;9.280;2023-03-08T06:31:52;13.90;;;8.37;;
13079;SDS011;6606;49.154;9.280;2023-03-08T06:34:35;10.67;;;7.87;;
13079;SDS011;6606;49.154;9.280;2023-03-08T06:37:17;14.20;;;8.07;;
13079;SDS011;6606;49.154;9.280;2023-03-08T06:39:59;11.97;;;7.87;;
13079;SDS011;6606;49.154;9.280;2023-03-08T06:42:47;12.57;;;7.80;;
13079;SDS011;6606;49.154;9.280;2023-03-08T06:45:30;10.13;;;7.40;;
13079;SDS011;6606;49.154;9.280;2023-03-08T06:48:13;11.83;;;8.07;;
13079;SDS011;6606;49.154;9.280;2023-03-08T06:50:58;13.53;;;8.60;;
13079;SDS011;6606;49.154;9.280;2023-03-08T06:53:40;12.60;;;8.50;;
13079;SDS011;6606;49.154;9.280;2023-03-08T06:56:23;16.93;;;8.80;;
13079;SDS011;6606;49.154;9.280;2023-03-08T06:59:07;11.57;;;8.30;;
13079;SDS011;6606;49.154;9.280;2023-03-08T07:01:52;12.93;;;8.37;;
13079;SDS011;6606;49.154;9.280;2023-03-08T07:04:36;11.90;;;8.17;;
13079;SDS011;6606;49.154;9.280;2023-03-08T07:07:18;11.80;;;7.73;;
13079;SDS011;6606;49.154;9.280;2023-03-08T07:09:59;12.83;;;8.60;;
13079;SDS011;6606;49.154;9.280;2023-03-08T07:12:42;10.50;;;7.43;;
13079;SDS011;6606;49.154;9.280;2023-03-08T07:15:30;11.70;;;8.00;;
13079;SDS011;6606;49.154;9.280;2023-03-08T07:18:13;11.40;;;7.87;;
13079;SDS011;6606;49.154;9.280;2023-03-08T07:20:55;11.10;;;7.90;;
13079;SDS011;6606;49.154;9.280;2023-03-08T07:23:36;11.57;;;8.03;;
13079;SDS011;6606;49.154;9.280;2023-03-08T07:26:18;10.63;;;7.97;;
13079;SDS011;6606;49.154;9.280;2023-03-08T07:29:00;12.40;;;8.50;;
13079;SDS011;6606;49.154;9.280;2023-03-08T07:31:42;11.90;;;7.87;;
13079;SDS011;6606;49.154;9.280;2023-03-08T07:34:25;13.30;;;8.50;;
13079;SDS011;6606;49.154;9.280;2023-03-08T07:37:09;11.53;;;8.47;;
13079;SDS011;6606;49.154;9.280;2023-03-08T07:39:52;12.10;;;8.43;;
13079;SDS011;6606;49.154;9.280;2023-03-08T07:42:33;15.33;;;9.53;;
13079;SDS011;6606;49.154;9.280;2023-03-08T07:45:25;15.43;;;9.10;;
13079;SDS011;6606;49.154;9.280;2023-03-08T07:48:08;14.87;;;9.53;;
13079;SDS011;6606;49.154;9.280;2023-03-08T07:50:51;14.73;;;10.17;;
13079;SDS011;6606;49.154;9.280;2023-03-08T07:53:33;14.63;;;9.80;;
13079;SDS011;6606;49.154;9.280;2023-03-08T07:56:15;19.63;;;11.07;;
13079;SDS011;6606;49.154;9.280;2023-03-08T07:58:57;16.10;;;10.13;;
13079;SDS011;6606;49.154;9.280;2023-03-08T08:01:38;14.20;;;10.30;;
13079;SDS011;6606;49.154;9.280;2023-03-08T08:04:20;14.60;;;10.17;;
13079;SDS011;6606;49.154;9.280;2023-03-08T08:07:04;18.87;;;10.93;;
13079;SDS011;6606;49.154;9.280;2023-03-08T08:09:46;16.93;;;11.33;;
13079;SDS011;6606;49.154;9.280;2023-03-08T08:12:30;15.70;;;10.80;;
13079;SDS011;6606;49.154;9.280;2023-03-08T08:15:12;16.40;;;10.40;;
13079;SDS011;6606;49.154;9.280;2023-03-08T08:17:55;15.37;;;10.67;;
13079;SDS011;6606;49.154;9.280;2023-03-08T08:20:37;19.97;;;13.03;;
13079;SDS011;6606;49.154;9.280;2023-03-08T08:23:20;17.47;;;11.77;;
13079;SDS011;6606;49.154;9.280;2023-03-08T08:26:03;19.10;;;11.80;;
13079;SDS011;6606;49.154;9.280;2023-03-08T08:28:46;18.47;;;12.60;;
13079;SDS011;6606;49.154;9.280;2023-03-08T08:31:31;17.83;;;11.90;;
13079;SDS011;6606;49.154;9.280;2023-03-08T08:34:13;18.77;;;12.70;;
13079;SDS011;6606;49.154;9.280;2023-03-08T08:36:55;18.97;;;12.80;;
13079;SDS011;6606;49.154;9.280;2023-03-08T08:39:38;19.67;;;12.90;;
13079;SDS011;6606;49.154;9.280;2023-03-08T08:42:20;33.03;;;20.23;;
13079;SDS011;6606;49.154;9.280;2023-03-08T08:45:02;22.87;;;14.47;;
13079;SDS011;6606;49.154;9.280;2023-03-08T08:47:44;22.10;;;13.70;;
13079;SDS011;6606;49.154;9.280;2023-03-08T08:50:26;20.93;;;13.43;;
13079;SDS011;6606;49.154;9.280;2023-03-08T08:53:12;24.53;;;14.30;;
13079;SDS011;6606;49.154;9.280;2023-03-08T08:55:56;24.30;;;14.47;;
13079;SDS011;6606;49.154;9.280;2023-03-08T08:58:38;27.60;;;15.60;;
13079;SDS011;6606;49.154;9.280;2023-03-08T09:01:20;23.23;;;14.17;;
13079;SDS011;6606;49.154;9.280;2023-03-08T09:04:03;23.57;;;14.30;;
13079;SDS011;6606;49.154;9.280;2023-03-08T09:06:45;20.87;;;14.70;;
13079;SDS011;6606;49.154;9.280;2023-03-08T09:09:29;26.40;;;14.90;;
13079;SDS011;6606;49.154;9.280;2023-03-08T09:12:12;21.57;;;14.53;;
13079;SDS011;6606;49.154;9.280;2023-03-08T09:14:54;22.83;;;15.20;;
13079;SDS011;6606;49.154;9.280;2023-03-08T09:17:36;24.10;;;14.30;;
13079;SDS011;6606;49.154;9.280;2023-03-08T09:20:18;22.90;;;15.03;;
13079;SDS011;6606;49.154;9.280;2023-03-08T09:23:01;21.40;;;14.77;;
13079;SDS011;6606;49.154;9.280;2023-03-08T09:25:43;23.67;;;14.40;;
13079;SDS011;6606;49.154;9.280;2023-03-08T09:28:26;24.47;;;14.50;;
13079;SDS011;6606;49.154;9.280;2023-03-08T09:31:08;24.20;;;14.70;;
13079;SDS011;6606;49.154;9.280;2023-03-08T09:33:52;23.20;;;15.13;;
13079;SDS011;6606;49.154;9.280;2023-03-08T09:36:34;21.70;;;14.70;;
13079;SDS011;6606;49.154;9.280;2023-03-08T09:39:18;21.77;;;13.47;;
13079;SDS011;6606;49.154;9.280;2023-03-08T09:42:01;25.70;;;16.60;;
13079;SDS011;6606;49.154;9.280;2023-03-08T09:44:50;19.90;;;14.47;;
13079;SDS011;6606;49.154;9.280;2023-03-08T09:47:43;20.60;;;13.40;;
13079;SDS011;6606;49.154;9.280;2023-03-08T09:50:32;22.03;;;13.47;;
13079;SDS011;6606;49.154;9.280;2023-03-08T09:53:25;37.03;;;25.10;;
13079;SDS011;6606;49.154;9.280;2023-03-08T09:56:12;22.03;;;14.37;;
13079;SDS011;6606;49.154;9.280;2023-03-08T09:58:58;22.93;;;16.83;;
13079;SDS011;6606;49.154;9.280;2023-03-08T10:01:46;23.33;;;15.03;;
13079;SDS011;6606;49.154;9.280;2023-03-08T10:04:43;21.30;;;13.67;;
13079;SDS011;6606;49.154;9.280;2023-03-08T10:07:32;20.43;;;13.30;;
13079;SDS011;6606;49.154;9.280;2023-03-08T10:10:21;20.83;;;13.57;;
13079;SDS011;6606;49.154;9.280;2023-03-08T10:16:18;19.83;;;11.83;;
13079;SDS011;6606;49.154;9.280;2023-03-08T10:19:04;18.77;;;13.13;;
13079;SDS011;6606;49.154;9.280;2023-03-08T10:21:55;17.97;;;12.20;;
13079;SDS011;6606;49.154;9.280;2023-03-08T10:24:40;17.93;;;12.27;;
13079;SDS011;6606;49.154;9.280;2023-03-08T10:27:31;19.87;;;13.53;;
13079;SDS011;6606;49.154;9.280;2023-03-08T10:30:15;18.93;;;12.67;;
13079;SDS011;6606;49.154;9.280;2023-03-08T10:33:00;19.20;;;12.07;;
13079;SDS011;6606;49.154;9.280;2023-03-08T10:35:53;18.77;;;13.23;;
13079;SDS011;6606;49.154;9.280;2023-03-08T10:38:40;19.23;;;12.63;;
13079;SDS011;6606;49.154;9.280;2023-03-08T10:41:22;18.80;;;12.63;;
13079;SDS011;6606;49.154;9.280;2023-03-08T10:44:09;17.00;;;11.37;;
13079;SDS011;6606;49.154;9.280;2023-03-08T10:46:53;17.83;;;12.30;;
13079;SDS011;6606;49.154;9.280;2023-03-08T10:49:35;15.47;;;11.20;;
13079;SDS011;6606;49.154;9.280;2023-03-08T10:52:24;17.97;;;13.03;;
13079;SDS011;6606;49.154;9.280;2023-03-08T10:55:09;16.93;;;11.80;;
13079;SDS011;6606;49.154;9.280;2023-03-08T10:57:56;14.90;;;11.37;;
13079;SDS011;6606;49.154;9.280;2023-03-08T11:00:39;19.60;;;12.67;;
13079;SDS011;6606;49.154;9.280;2023-03-08T11:03:24;16.53;;;12.27;;
13079;SDS011;6606;49.154;9.280;2023-03-08T11:06:11;16.23;;;11.43;;
13079;SDS011;6606;49.154;9.280;2023-03-08T11:08:57;16.17;;;11.57;;
13079;SDS011;6606;49.154;9.280;2023-03-08T11:11:41;18.07;;;11.97;;
13079;SDS011;6606;49.154;9.280;2023-03-08T11:14:23;18.17;;;13.00;;
13079;SDS011;6606;49.154;9.280;2023-03-08T11:17:13;19.53;;;13.17;;
13079;SDS011;6606;49.154;9.280;2023-03-08T11:20:03;15.80;;;11.40;;
13079;SDS011;6606;49.154;9.280;2023-03-08T11:22:59;16.43;;;11.53;;
13079;SDS011;6606;49.154;9.280;2023-03-08T11:25:54;17.40;;;11.73;;
13079;SDS011;6606;49.154;9.280;2023-03-08T11:28:46;15.87;;;11.80;;
13079;SDS011;6606;49.154;9.280;2023-03-08T11:31:37;18.50;;;12.50;;
13079;SDS011;6606;49.154;9.280;2023-03-08T11:34:38;16.53;;;11.57;;
13079;SDS011;6606;49.154;9.280;2023-03-08T11:37:30;14.90;;;11.23;;
13079;SDS011;6606;49.154;9.280;2023-03-08T11:40:20;14.60;;;10.90;;
13079;SDS011;6606;49.154;9.280;2023-03-08T11:43:10;16.10;;;11.13;;
13079;SDS011;6606;49.154;9.280;2023-03-08T11:46:04;13.67;;;11.07;;
13079;SDS011;6606;49.154;9.280;2023-03-08T11:52:16;15.33;;;10.20;;
13079;SDS011;6606;49.154;9.280;2023-03-08T11:55:15;15.03;;;10.70;;
13079;SDS011;6606;49.154;9.280;2023-03-08T11:58:20;14.23;;;10.07;;
13079;SDS011;6606;49.154;9.280;2023-03-08T12:01:08;13.17;;;9.67;;
13079;SDS011;6606;49.154;9.280;2023-03-08T12:03:57;14.30;;;10.37;;
13079;SDS011;6606;49.154;9.280;2023-03-08T12:06:45;12.37;;;9.00;;
13079;SDS011;6606;49.154;9.280;2023-03-08T12:09:28;11.07;;;8.73;;
13079;SDS011;6606;49.154;9.280;2023-03-08T12:12:13;11.10;;;8.33;;
13079;SDS011;6606;49.154;9.280;2023-03-08T12:15:01;11.07;;;7.90;;
13079;SDS011;6606;49.154;9.280;2023-03-08T12:17:49;13.60;;;7.60;;
13079;SDS011;6606;49.154;9.280;2023-03-08T12:20:42;11.47;;;8.07;;
13079;SDS011;6606;49.154;9.280;2023-03-08T12:23:27;11.10;;;8.53;;
13079;SDS011;6606;49.154;9.280;2023-03-08T12:26:23;10.93;;;7.47;;
13079;SDS011;6606;49.154;9.280;2023-03-08T12:29:42;9.33;;;7.43;;
13079;SDS011;6606;49.154;9.280;2023-03-08T12:32:40;9.73;;;7.73;;
13079;SDS011;6606;49.154;9.280;2023-03-08T12:36:03;9.97;;;7.73;;
13079;SDS011;6606;49.154;9.280;2023-03-08T12:38:46;10.90;;;7.73;;
13079;SDS011;6606;49.154;9.280;2023-03-08T12:41:37;12.83;;;8.10;;
13079;SDS011;6606;49.154;9.280;2023-03-08T12:44:23;12.37;;;8.43;;
13079;SDS011;6606;49.154;9.280;2023-03-08T12:47:23;13.77;;;10.23;;
13079;SDS011;6606;49.154;9.280;2023-03-08T12:50:08;17.40;;;11.43;;
13079;SDS011;6606;49.154;9.280;2023-03-08T12:53:02;18.30;;;13.03;;
13079;SDS011;6606;49.154;9.280;2023-03-08T12:59:32;14.97;;;11.60;;
13079;SDS011;6606;49.154;9.280;2023-03-08T13:05:29;14.00;;;10.43;;
13079;SDS011;6606;49.154;9.280;2023-03-08T13:11:14;13.37;;;9.80;;
13079;SDS011;6606;49.154;9.280;2023-03-08T13:14:21;12.80;;;9.07;;
13079;SDS011;6606;49.154;9.280;2023-03-08T13:18:12;11.13;;;8.57;;
13079;SDS011;6606;49.154;9.280;2023-03-08T13:21:06;13.43;;;6.67;;
13079;SDS011;6606;49.154;9.280;2023-03-08T13:24:00;10.83;;;6.93;;
13079;SDS011;6606;49.154;9.280;2023-03-08T13:26:52;10.57;;;6.57;;
13079;SDS011;6606;49.154;9.280;2023-03-08T13:29:42;11.37;;;6.60;;
13079;SDS011;6606;49.154;9.280;2023-03-08T13:32:24;9.07;;;6.13;;
13079;SDS011;6606;49.154;9.280;2023-03-08T13:35:10;6.97;;;5.70;;
13079;SDS011;6606;49.154;9.280;2023-03-08T13:37:58;6.90;;;5.40;;
13079;SDS011;6606;49.154;9.280;2023-03-08T13:40:48;6.63;;;3.63;;
13079;SDS011;6606;49.154;9.280;2023-03-08T13:43:31;3.60;;;2.33;;
13079;SDS011;6606;49.154;9.280;2023-03-08T13:46:21;3.40;;;3.00;;
13079;SDS011;6606;49.154;9.280;2023-03-08T13:49:08;3.30;;;2.60;;
13079;SDS011;6606;49.154;9.280;2023-03-08T13:51:58;3.87;;;2.43;;
13079;SDS011;6606;49.154;9.280;2023-03-08T13:54:43;2.70;;;1.87;;
13079;SDS011;6606;49.154;9.280;2023-03-08T13:57:28;1.40;;;1.27;;
13079;SDS011;6606;49.154;9.280;2023-03-08T14:00:23;2.10;;;0.80;;
13079;SDS011;6606;49.154;9.280;2023-03-08T14:03:17;2.93;;;1.10;;
13079;SDS011;6606;49.154;9.280;2023-03-08T14:06:02;1.80;;;1.00;;
13079;SDS011;6606;49.154;9.280;2023-03-08T14:08:44;1.40;;;0.93;;
13079;SDS011;6606;49.154;9.280;2023-03-08T14:11:29;0.90;;;0.80;;
13079;SDS011;6606;49.154;9.280;2023-03-08T14:14:14;1.83;;;0.70;;
13079;SDS011;6606;49.154;9.280;2023-03-08T14:17:00;3.27;;;0.97;;
13079;SDS011;6606;49.154;9.280;2023-03-08T14:19:42;2.53;;;1.17;;
13079;SDS011;6606;49.154;9.280;2023-03-08T14:22:25;1.80;;;0.90;;
13079;SDS011;6606;49.154;9.280;2023-03-08T14:25:19;1.77;;;0.90;;
13079;SDS011;6606;49.154;9.280;2023-03-08T14:28:04;1.47;;;1.00;;
13079;SDS011;6606;49.154;9.280;2023-03-08T14:30:46;1.20;;;0.90;;
13079;SDS011;6606;49.154;9.280;2023-03-08T14:33:28;1.10;;;1.00;;
13079;SDS011;6606;49.154;9.280;2023-03-08T14:36:10;1.10;;;0.93;;
13079;SDS011;6606;49.154;9.280;2023-03-08T14:38:55;1.83;;;1.10;;
13079;SDS011;6606;49.154;9.280;2023-03-08T14:41:39;2.90;;;1.20;;
13079;SDS011;6606;49.154;9.280;2023-03-08T14:44:22;1.40;;;1.10;;
13079;SDS011;6606;49.154;9.280;2023-03-08T14:47:07;3.33;;;1.13;;
13079;SDS011;6606;49.154;9.280;2023-03-08T14:49:54;1.33;;;0.90;;
13079;SDS011;6606;49.154;9.280;2023-03-08T14:52:43;2.07;;;1.10;;
13079;SDS011;6606;49.154;9.280;2023-03-08T14:55:26;2.27;;;1.27;;
13079;SDS011;6606;49.154;9.280;2023-03-08T14:58:10;1.50;;;1.10;;
13079;SDS011;6606;49.154;9.280;2023-03-08T15:00:56;1.43;;;1.23;;
13079;SDS011;6606;49.154;9.280;2023-03-08T15:03:40;1.60;;;1.00;;
13079;SDS011;6606;49.154;9.280;2023-03-08T15:06:23;1.40;;;1.00;;
13079;SDS011;6606;49.154;9.280;2023-03-08T15:09:06;2.13;;;1.10;;
13079;SDS011;6606;49.154;9.280;2023-03-08T15:11:49;1.40;;;0.80;;
13079;SDS011;6606;49.154;9.280;2023-03-08T15:14:33;1.10;;;1.00;;
13079;SDS011;6606;49.154;9.280;2023-03-08T15:17:16;2.10;;;1.00;;
13079;SDS011;6606;49.154;9.280;2023-03-08T15:19:58;1.83;;;1.10;;
13079;SDS011;6606;49.154;9.280;2023-03-08T15:22:42;2.70;;;1.03;;
13079;SDS011;6606;49.154;9.280;2023-03-08T15:25:28;0.97;;;0.80;;
13079;SDS011;6606;49.154;9.280;2023-03-08T15:28:15;1.40;;;1.10;;
13079;SDS011;6606;49.154;9.280;2023-03-08T15:30:57;1.33;;;1.00;;
13079;SDS011;6606;49.154;9.280;2023-03-08T15:33:40;1.10;;;1.00;;
13079;SDS011;6606;49.154;9.280;2023-03-08T15:36:22;2.30;;;1.20;;
13079;SDS011;6606;49.154;9.280;2023-03-08T15:39:04;1.07;;;0.90;;
13079;SDS011;6606;49.154;9.280;2023-03-08T15:41:46;1.10;;;1.00;;
13079;SDS011;6606;49.154;9.280;2023-03-08T15:44:28;1.30;;;1.10;;
13079;SDS011;6606;49.154;9.280;2023-03-08T15:47:09;0.97;;;0.87;;
13079;SDS011;6606;49.154;9.280;2023-03-08T15:49:52;1.00;;;0.90;;
13079;SDS011;6606;49.154;9.280;2023-03-08T15:52:34;1.00;;;0.90;;
13079;SDS011;6606;49.154;9.280;2023-03-08T15:55:16;1.53;;;1.00;;
13079;SDS011;6606;49.154;9.280;2023-03-08T15:57:58;2.30;;;1.17;;
13079;SDS011;6606;49.154;9.280;2023-03-08T16:00:40;1.83;;;1.00;;
13079;SDS011;6606;49.154;9.280;2023-03-08T16:03:21;1.50;;;1.10;;
13079;SDS011;6606;49.154;9.280;2023-03-08T16:06:10;1.53;;;1.10;;
13079;SDS011;6606;49.154;9.280;2023-03-08T16:08:55;1.60;;;1.00;;
13079;SDS011;6606;49.154;9.280;2023-03-08T16:11:37;1.70;;;1.00;;
13079;SDS011;6606;49.154;9.280;2023-03-08T16:14:18;1.33;;;1.07;;
13079;SDS011;6606;49.154;9.280;2023-03-08T16:17:00;1.67;;;1.20;;
13079;SDS011;6606;49.154;9.280;2023-03-08T16:19:44;1.53;;;0.90;;
13079;SDS011;6606;49.154;9.280;2023-03-08T16:22:27;1.40;;;1.10;;
13079;SDS011;6606;49.154;9.280;2023-03-08T16:25:09;1.50;;;1.20;;
13079;SDS011;6606;49.154;9.280;2023-03-08T16:27:51;2.10;;;1.30;;
13079;SDS011;6606;49.154;9.280;2023-03-08T16:30:32;2.87;;;1.03;;
13079;SDS011;6606;49.154;9.280;2023-03-08T16:33:14;1.77;;;1.10;;
13079;SDS011;6606;49.154;9.280;2023-03-08T16:35:56;2.23;;;1.10;;
13079;SDS011;6606;49.154;9.280;2023-03-08T16:38:39;2.37;;;1.50;;
13079;SDS011;6606;49.154;9.280;2023-03-08T16:41:21;2.17;;;1.20;;
13079;SDS011;6606;49.154;9.280;2023-03-08T16:44:05;1.33;;;1.23;;
13079;SDS011;6606;49.154;9.280;2023-03-08T16:46:47;1.20;;;1.07;;
13079;SDS011;6606;49.154;9.280;2023-03-08T16:49:29;3.30;;;1.77;;
13079;SDS011;6606;49.154;9.280;2023-03-08T16:52:11;3.87;;;1.60;;